sensor_id;sensor_type;location;lat;lon;timestamp;P1;durP1;ratioP1;P2;durP2;ratioP2
52878;SDS011;38747;53.140;6.498;2024-02-28T00:00:10;29.40;;;10.47;;
52878;SDS011;38747;53.140;6.498;2024-02-28T00:02:36;24.98;;;10.35;;
52878;SDS011;38747;53.140;6.498;2024-02-28T00:05:02;23.73;;;9.88;;
52878;SDS011;38747;53.140;6.498;2024-02-28T00:07:27;28.60;;;10.10;;
52878;SDS011;38747;53.140;6.498;2024-02-28T00:09:53;27.90;;;9.55;;
52878;SDS011;38747;53.140;6.498;2024-02-28T00:12:22;28.17;;;9.53;;
52878;SDS011;38747;53.140;6.498;2024-02-28T00:14:50;26.13;;;9.73;;
52878;SDS011;38747;53.140;6.498;2024-02-28T00:17:16;23.75;;;9.50;;
52878;SDS011;38747;53.140;6.498;2024-02-28T00:19:41;32.40;;;10.00;;
52878;SDS011;38747;53.140;6.498;2024-02-28T00:22:07;46.50;;;9.83;;
52878;SDS011;38747;53.140;6.498;2024-02-28T00:24:34;24.30;;;8.93;;
52878;SDS011;38747;53.140;6.498;2024-02-28T00:26:59;35.45;;;10.13;;
52878;SDS011;38747;53.140;6.498;2024-02-28T00:29:25;37.22;;;11.25;;
52878;SDS011;38747;53.140;6.498;2024-02-28T00:31:51;27.60;;;9.43;;
52878;SDS011;38747;53.140;6.498;2024-02-28T00:34:17;26.33;;;10.05;;
52878;SDS011;38747;53.140;6.498;2024-02-28T00:36:42;23.17;;;9.07;;
52878;SDS011;38747;53.140;6.498;2024-02-28T00:39:08;24.05;;;10.43;;
52878;SDS011;38747;53.140;6.498;2024-02-28T00:41:35;25.30;;;9.23;;
52878;SDS011;38747;53.140;6.498;2024-02-28T00:44:01;24.85;;;9.55;;
52878;SDS011;38747;53.140;6.498;2024-02-28T00:46:28;23.73;;;8.87;;
52878;SDS011;38747;53.140;6.498;2024-02-28T00:48:53;28.20;;;9.50;;
52878;SDS011;38747;53.140;6.498;2024-02-28T00:51:19;26.93;;;9.73;;
52878;SDS011;38747;53.140;6.498;2024-02-28T00:53:44;25.38;;;9.45;;
52878;SDS011;38747;53.140;6.498;2024-02-28T00:56:10;24.83;;;9.30;;
52878;SDS011;38747;53.140;6.498;2024-02-28T00:58:36;25.90;;;10.27;;
52878;SDS011;38747;53.140;6.498;2024-02-28T01:35:59;25.60;;;9.65;;
52878;SDS011;38747;53.140;6.498;2024-02-28T01:38:24;24.90;;;9.85;;
52878;SDS011;38747;53.140;6.498;2024-02-28T01:40:51;28.13;;;10.00;;
52878;SDS011;38747;53.140;6.498;2024-02-28T01:43:17;24.48;;;10.07;;
52878;SDS011;38747;53.140;6.498;2024-02-28T01:45:43;23.63;;;9.23;;
52878;SDS011;38747;53.140;6.498;2024-02-28T01:48:09;25.00;;;9.93;;
52878;SDS011;38747;53.140;6.498;2024-02-28T01:50:37;28.15;;;10.82;;
52878;SDS011;38747;53.140;6.498;2024-02-28T01:53:03;23.08;;;9.20;;
52878;SDS011;38747;53.140;6.498;2024-02-28T01:55:31;24.63;;;9.47;;
52878;SDS011;38747;53.140;6.498;2024-02-28T01:57:57;24.08;;;9.80;;
52878;SDS011;38747;53.140;6.498;2024-02-28T02:00:23;24.77;;;8.85;;
52878;SDS011;38747;53.140;6.498;2024-02-28T02:02:50;32.50;;;10.50;;
52878;SDS011;38747;53.140;6.498;2024-02-28T02:05:16;30.73;;;10.60;;
52878;SDS011;38747;53.140;6.498;2024-02-28T02:07:45;24.83;;;9.93;;
52878;SDS011;38747;53.140;6.498;2024-02-28T02:10:13;25.38;;;9.77;;
52878;SDS011;38747;53.140;6.498;2024-02-28T02:12:39;27.38;;;9.45;;
52878;SDS011;38747;53.140;6.498;2024-02-28T02:15:04;27.17;;;10.67;;
52878;SDS011;38747;53.140;6.498;2024-02-28T02:17:30;22.88;;;9.65;;
52878;SDS011;38747;53.140;6.498;2024-02-28T02:19:56;28.67;;;10.93;;
52878;SDS011;38747;53.140;6.498;2024-02-28T02:22:22;26.97;;;10.33;;
52878;SDS011;38747;53.140;6.498;2024-02-28T02:24:50;25.08;;;10.57;;
52878;SDS011;38747;53.140;6.498;2024-02-28T02:27:16;34.33;;;10.73;;
52878;SDS011;38747;53.140;6.498;2024-02-28T02:29:41;26.53;;;10.13;;
52878;SDS011;38747;53.140;6.498;2024-02-28T02:32:07;27.50;;;10.30;;
52878;SDS011;38747;53.140;6.498;2024-02-28T02:34:33;28.20;;;11.10;;
52878;SDS011;38747;53.140;6.498;2024-02-28T02:36:59;27.75;;;10.98;;
52878;SDS011;38747;53.140;6.498;2024-02-28T02:39:24;24.83;;;10.27;;
52878;SDS011;38747;53.140;6.498;2024-02-28T02:41:50;25.17;;;9.93;;
52878;SDS011;38747;53.140;6.498;2024-02-28T02:44:16;25.67;;;10.07;;
52878;SDS011;38747;53.140;6.498;2024-02-28T02:46:41;25.63;;;10.30;;
52878;SDS011;38747;53.140;6.498;2024-02-28T02:49:07;25.60;;;9.90;;
52878;SDS011;38747;53.140;6.498;2024-02-28T02:51:32;25.02;;;10.57;;
52878;SDS011;38747;53.140;6.498;2024-02-28T02:53:58;22.87;;;10.00;;
52878;SDS011;38747;53.140;6.498;2024-02-28T02:56:24;25.27;;;9.65;;
52878;SDS011;38747;53.140;6.498;2024-02-28T02:58:49;26.20;;;10.10;;
52878;SDS011;38747;53.140;6.498;2024-02-28T03:01:15;24.80;;;10.27;;
52878;SDS011;38747;53.140;6.498;2024-02-28T03:03:40;23.77;;;9.80;;
52878;SDS011;38747;53.140;6.498;2024-02-28T03:06:06;26.20;;;10.63;;
52878;SDS011;38747;53.140;6.498;2024-02-28T03:08:32;22.05;;;9.88;;
52878;SDS011;38747;53.140;6.498;2024-02-28T03:10:58;22.17;;;9.23;;
52878;SDS011;38747;53.140;6.498;2024-02-28T03:13:23;23.02;;;9.82;;
52878;SDS011;38747;53.140;6.498;2024-02-28T03:15:49;25.10;;;10.90;;
52878;SDS011;38747;53.140;6.498;2024-02-28T03:18:15;25.13;;;9.70;;
52878;SDS011;38747;53.140;6.498;2024-02-28T03:20:40;26.37;;;10.73;;
52878;SDS011;38747;53.140;6.498;2024-02-28T03:23:06;29.13;;;10.70;;
52878;SDS011;38747;53.140;6.498;2024-02-28T03:25:32;28.30;;;11.07;;
52878;SDS011;38747;53.140;6.498;2024-02-28T03:27:58;26.13;;;11.15;;
52878;SDS011;38747;53.140;6.498;2024-02-28T03:30:25;26.50;;;9.98;;
52878;SDS011;38747;53.140;6.498;2024-02-28T03:32:50;28.45;;;11.10;;
52878;SDS011;38747;53.140;6.498;2024-02-28T03:35:16;27.53;;;11.43;;
52878;SDS011;38747;53.140;6.498;2024-02-28T03:37:42;31.17;;;11.77;;
52878;SDS011;38747;53.140;6.498;2024-02-28T03:40:07;27.13;;;10.57;;
52878;SDS011;38747;53.140;6.498;2024-02-28T03:42:33;30.02;;;11.35;;
52878;SDS011;38747;53.140;6.498;2024-02-28T03:44:59;26.70;;;10.47;;
52878;SDS011;38747;53.140;6.498;2024-02-28T03:47:24;24.30;;;10.47;;
52878;SDS011;38747;53.140;6.498;2024-02-28T03:49:50;28.43;;;11.00;;
52878;SDS011;38747;53.140;6.498;2024-02-28T03:52:16;29.85;;;12.23;;
52878;SDS011;38747;53.140;6.498;2024-02-28T03:54:42;29.47;;;11.67;;
52878;SDS011;38747;53.140;6.498;2024-02-28T03:57:08;26.33;;;10.55;;
52878;SDS011;38747;53.140;6.498;2024-02-28T03:59:34;26.73;;;11.00;;
52878;SDS011;38747;53.140;6.498;2024-02-28T04:02:00;27.40;;;10.75;;
52878;SDS011;38747;53.140;6.498;2024-02-28T04:04:25;27.87;;;10.60;;
52878;SDS011;38747;53.140;6.498;2024-02-28T04:06:51;26.35;;;9.88;;
52878;SDS011;38747;53.140;6.498;2024-02-28T04:09:17;30.20;;;11.77;;
52878;SDS011;38747;53.140;6.498;2024-02-28T04:11:42;29.15;;;11.45;;
52878;SDS011;38747;53.140;6.498;2024-02-28T04:14:08;26.43;;;9.87;;
52878;SDS011;38747;53.140;6.498;2024-02-28T04:16:34;31.35;;;11.02;;
52878;SDS011;38747;53.140;6.498;2024-02-28T04:19:02;30.27;;;11.70;;
52878;SDS011;38747;53.140;6.498;2024-02-28T04:21:27;29.27;;;11.43;;
52878;SDS011;38747;53.140;6.498;2024-02-28T04:23:53;26.27;;;10.77;;
52878;SDS011;38747;53.140;6.498;2024-02-28T04:26:19;26.25;;;10.25;;
52878;SDS011;38747;53.140;6.498;2024-02-28T04:28:44;23.27;;;9.63;;
52878;SDS011;38747;53.140;6.498;2024-02-28T04:31:10;26.37;;;10.07;;
52878;SDS011;38747;53.140;6.498;2024-02-28T04:33:36;28.17;;;10.67;;
52878;SDS011;38747;53.140;6.498;2024-02-28T04:36:01;31.08;;;11.38;;
52878;SDS011;38747;53.140;6.498;2024-02-28T04:38:28;28.33;;;10.50;;
52878;SDS011;38747;53.140;6.498;2024-02-28T04:40:53;30.83;;;11.80;;
52878;SDS011;38747;53.140;6.498;2024-02-28T04:43:19;29.87;;;11.67;;
52878;SDS011;38747;53.140;6.498;2024-02-28T04:45:44;29.98;;;11.05;;
52878;SDS011;38747;53.140;6.498;2024-02-28T04:48:10;26.70;;;10.63;;
52878;SDS011;38747;53.140;6.498;2024-02-28T04:50:36;32.30;;;10.73;;
52878;SDS011;38747;53.140;6.498;2024-02-28T04:53:01;28.43;;;11.20;;
52878;SDS011;38747;53.140;6.498;2024-02-28T04:55:27;30.70;;;10.73;;
52878;SDS011;38747;53.140;6.498;2024-02-28T04:57:52;25.35;;;10.27;;
52878;SDS011;38747;53.140;6.498;2024-02-28T05:00:21;26.80;;;10.63;;
52878;SDS011;38747;53.140;6.498;2024-02-28T05:02:47;27.88;;;11.52;;
52878;SDS011;38747;53.140;6.498;2024-02-28T05:05:12;28.20;;;9.87;;
52878;SDS011;38747;53.140;6.498;2024-02-28T05:07:38;28.67;;;11.23;;
52878;SDS011;38747;53.140;6.498;2024-02-28T05:10:04;26.00;;;10.97;;
52878;SDS011;38747;53.140;6.498;2024-02-28T05:12:30;29.13;;;11.30;;
52878;SDS011;38747;53.140;6.498;2024-02-28T05:14:55;28.60;;;11.10;;
52878;SDS011;38747;53.140;6.498;2024-02-28T05:17:21;27.87;;;11.53;;
52878;SDS011;38747;53.140;6.498;2024-02-28T05:19:47;29.67;;;11.90;;
52878;SDS011;38747;53.140;6.498;2024-02-28T05:22:12;26.83;;;10.93;;
52878;SDS011;38747;53.140;6.498;2024-02-28T05:24:38;28.58;;;11.57;;
52878;SDS011;38747;53.140;6.498;2024-02-28T05:27:04;30.70;;;12.00;;
52878;SDS011;38747;53.140;6.498;2024-02-28T05:29:29;30.80;;;12.53;;
52878;SDS011;38747;53.140;6.498;2024-02-28T05:31:55;30.80;;;12.27;;
52878;SDS011;38747;53.140;6.498;2024-02-28T05:34:21;29.63;;;11.63;;
52878;SDS011;38747;53.140;6.498;2024-02-28T05:36:47;32.47;;;12.75;;
52878;SDS011;38747;53.140;6.498;2024-02-28T05:39:13;29.17;;;12.45;;
52878;SDS011;38747;53.140;6.498;2024-02-28T05:41:39;27.77;;;11.63;;
52878;SDS011;38747;53.140;6.498;2024-02-28T05:44:05;31.80;;;12.40;;
52878;SDS011;38747;53.140;6.498;2024-02-28T05:46:30;30.00;;;11.90;;
52878;SDS011;38747;53.140;6.498;2024-02-28T05:48:56;28.50;;;11.43;;
52878;SDS011;38747;53.140;6.498;2024-02-28T05:51:21;29.13;;;12.02;;
52878;SDS011;38747;53.140;6.498;2024-02-28T05:53:47;30.37;;;12.33;;
52878;SDS011;38747;53.140;6.498;2024-02-28T05:56:13;26.98;;;11.43;;
52878;SDS011;38747;53.140;6.498;2024-02-28T05:58:39;27.57;;;11.10;;
52878;SDS011;38747;53.140;6.498;2024-02-28T06:01:05;29.02;;;11.30;;
52878;SDS011;38747;53.140;6.498;2024-02-28T06:03:32;31.50;;;12.68;;
52878;SDS011;38747;53.140;6.498;2024-02-28T06:05:58;29.55;;;11.95;;
52878;SDS011;38747;53.140;6.498;2024-02-28T06:08:24;32.77;;;12.80;;
52878;SDS011;38747;53.140;6.498;2024-02-28T06:10:49;31.35;;;11.30;;
52878;SDS011;38747;53.140;6.498;2024-02-28T06:13:17;28.63;;;12.37;;
52878;SDS011;38747;53.140;6.498;2024-02-28T06:15:43;28.98;;;12.05;;
52878;SDS011;38747;53.140;6.498;2024-02-28T06:18:08;32.03;;;12.07;;
52878;SDS011;38747;53.140;6.498;2024-02-28T06:20:34;33.33;;;12.00;;
52878;SDS011;38747;53.140;6.498;2024-02-28T06:23:01;31.48;;;12.52;;
52878;SDS011;38747;53.140;6.498;2024-02-28T06:25:26;33.07;;;12.33;;
52878;SDS011;38747;53.140;6.498;2024-02-28T06:27:53;31.55;;;11.90;;
52878;SDS011;38747;53.140;6.498;2024-02-28T06:30:18;32.73;;;12.83;;
52878;SDS011;38747;53.140;6.498;2024-02-28T06:32:44;32.00;;;12.20;;
52878;SDS011;38747;53.140;6.498;2024-02-28T06:35:10;33.30;;;12.40;;
52878;SDS011;38747;53.140;6.498;2024-02-28T06:37:35;35.13;;;13.13;;
52878;SDS011;38747;53.140;6.498;2024-02-28T06:40:02;30.83;;;12.00;;
52878;SDS011;38747;53.140;6.498;2024-02-28T06:42:33;29.67;;;11.77;;
52878;SDS011;38747;53.140;6.498;2024-02-28T06:45:01;32.35;;;11.77;;
52878;SDS011;38747;53.140;6.498;2024-02-28T06:47:27;31.13;;;12.55;;
52878;SDS011;38747;53.140;6.498;2024-02-28T06:49:53;37.30;;;12.93;;
52878;SDS011;38747;53.140;6.498;2024-02-28T06:52:18;33.77;;;13.07;;
52878;SDS011;38747;53.140;6.498;2024-02-28T06:54:44;35.80;;;12.77;;
52878;SDS011;38747;53.140;6.498;2024-02-28T06:57:10;35.27;;;12.60;;
52878;SDS011;38747;53.140;6.498;2024-02-28T06:59:36;33.40;;;12.32;;
52878;SDS011;38747;53.140;6.498;2024-02-28T07:02:02;35.50;;;11.95;;
52878;SDS011;38747;53.140;6.498;2024-02-28T07:04:28;34.83;;;12.57;;
52878;SDS011;38747;53.140;6.498;2024-02-28T07:06:53;36.67;;;11.90;;
52878;SDS011;38747;53.140;6.498;2024-02-28T07:09:19;33.53;;;11.53;;
52878;SDS011;38747;53.140;6.498;2024-02-28T07:11:45;35.00;;;12.10;;
52878;SDS011;38747;53.140;6.498;2024-02-28T07:14:10;34.37;;;13.10;;
52878;SDS011;38747;53.140;6.498;2024-02-28T07:16:37;30.90;;;12.60;;
52878;SDS011;38747;53.140;6.498;2024-02-28T07:19:02;32.93;;;12.60;;
52878;SDS011;38747;53.140;6.498;2024-02-28T07:21:28;35.20;;;13.70;;
52878;SDS011;38747;53.140;6.498;2024-02-28T07:23:55;30.52;;;12.52;;
52878;SDS011;38747;53.140;6.498;2024-02-28T07:26:21;32.00;;;12.67;;
52878;SDS011;38747;53.140;6.498;2024-02-28T07:28:46;33.65;;;12.25;;
52878;SDS011;38747;53.140;6.498;2024-02-28T07:31:18;30.20;;;12.93;;
52878;SDS011;38747;53.140;6.498;2024-02-28T07:33:47;33.95;;;13.00;;
52878;SDS011;38747;53.140;6.498;2024-02-28T07:36:12;32.75;;;12.43;;
52878;SDS011;38747;53.140;6.498;2024-02-28T07:38:38;29.33;;;12.33;;
52878;SDS011;38747;53.140;6.498;2024-02-28T07:41:07;29.97;;;12.10;;
52878;SDS011;38747;53.140;6.498;2024-02-28T07:43:33;33.28;;;13.40;;
52878;SDS011;38747;53.140;6.498;2024-02-28T07:46:02;31.25;;;12.88;;
52878;SDS011;38747;53.140;6.498;2024-02-28T07:48:32;32.33;;;13.32;;
52878;SDS011;38747;53.140;6.498;2024-02-28T07:50:57;29.67;;;12.73;;
52878;SDS011;38747;53.140;6.498;2024-02-28T07:53:23;27.40;;;12.77;;
52878;SDS011;38747;53.140;6.498;2024-02-28T07:55:49;27.95;;;12.07;;
52878;SDS011;38747;53.140;6.498;2024-02-28T07:58:15;33.90;;;13.10;;
52878;SDS011;38747;53.140;6.498;2024-02-28T08:00:41;27.92;;;11.90;;
52878;SDS011;38747;53.140;6.498;2024-02-28T08:03:08;31.58;;;12.73;;
52878;SDS011;38747;53.140;6.498;2024-02-28T08:05:34;30.83;;;11.60;;
52878;SDS011;38747;53.140;6.498;2024-02-28T08:08:07;32.73;;;13.10;;
52878;SDS011;38747;53.140;6.498;2024-02-28T08:10:33;29.52;;;12.38;;
52878;SDS011;38747;53.140;6.498;2024-02-28T08:13:00;31.88;;;12.27;;
52878;SDS011;38747;53.140;6.498;2024-02-28T08:15:26;31.02;;;12.60;;
52878;SDS011;38747;53.140;6.498;2024-02-28T08:17:52;28.73;;;12.30;;
52878;SDS011;38747;53.140;6.498;2024-02-28T08:20:18;31.88;;;13.13;;
52878;SDS011;38747;53.140;6.498;2024-02-28T08:22:44;30.20;;;12.45;;
52878;SDS011;38747;53.140;6.498;2024-02-28T08:25:09;28.13;;;12.33;;
52878;SDS011;38747;53.140;6.498;2024-02-28T08:27:36;30.60;;;12.75;;
52878;SDS011;38747;53.140;6.498;2024-02-28T08:30:04;29.70;;;12.75;;
52878;SDS011;38747;53.140;6.498;2024-02-28T08:32:31;30.42;;;12.82;;
52878;SDS011;38747;53.140;6.498;2024-02-28T08:34:57;28.37;;;12.40;;
52878;SDS011;38747;53.140;6.498;2024-02-28T08:37:23;30.42;;;12.15;;
52878;SDS011;38747;53.140;6.498;2024-02-28T08:39:49;33.50;;;13.55;;
52878;SDS011;38747;53.140;6.498;2024-02-28T08:42:14;28.50;;;11.67;;
52878;SDS011;38747;53.140;6.498;2024-02-28T08:44:40;30.58;;;12.25;;
52878;SDS011;38747;53.140;6.498;2024-02-28T08:47:05;32.43;;;12.67;;
52878;SDS011;38747;53.140;6.498;2024-02-28T08:49:34;28.17;;;12.35;;
52878;SDS011;38747;53.140;6.498;2024-02-28T08:52:00;31.13;;;12.48;;
52878;SDS011;38747;53.140;6.498;2024-02-28T08:54:26;31.13;;;12.40;;
52878;SDS011;38747;53.140;6.498;2024-02-28T08:56:52;25.70;;;11.30;;
52878;SDS011;38747;53.140;6.498;2024-02-28T08:59:17;33.17;;;13.20;;
52878;SDS011;38747;53.140;6.498;2024-02-28T09:01:43;30.30;;;12.63;;
52878;SDS011;38747;53.140;6.498;2024-02-28T09:04:09;30.37;;;12.87;;
52878;SDS011;38747;53.140;6.498;2024-02-28T09:06:34;31.90;;;13.35;;
52878;SDS011;38747;53.140;6.498;2024-02-28T09:09:02;34.23;;;13.00;;
52878;SDS011;38747;53.140;6.498;2024-02-28T09:11:29;29.58;;;13.77;;
52878;SDS011;38747;53.140;6.498;2024-02-28T09:13:54;31.08;;;13.05;;
52878;SDS011;38747;53.140;6.498;2024-02-28T09:16:20;28.60;;;12.33;;
52878;SDS011;38747;53.140;6.498;2024-02-28T09:18:45;30.85;;;13.32;;
52878;SDS011;38747;53.140;6.498;2024-02-28T09:21:11;30.23;;;13.50;;
52878;SDS011;38747;53.140;6.498;2024-02-28T09:23:37;30.57;;;12.20;;
52878;SDS011;38747;53.140;6.498;2024-02-28T09:26:03;25.70;;;11.27;;
52878;SDS011;38747;53.140;6.498;2024-02-28T09:28:29;28.25;;;12.25;;
52878;SDS011;38747;53.140;6.498;2024-02-28T09:30:55;29.07;;;12.20;;
52878;SDS011;38747;53.140;6.498;2024-02-28T09:33:20;24.70;;;12.45;;
52878;SDS011;38747;53.140;6.498;2024-02-28T09:35:46;28.63;;;12.83;;
52878;SDS011;38747;53.140;6.498;2024-02-28T09:38:12;29.52;;;12.30;;
52878;SDS011;38747;53.140;6.498;2024-02-28T09:40:37;28.97;;;12.13;;
52878;SDS011;38747;53.140;6.498;2024-02-28T09:43:04;26.17;;;11.30;;
52878;SDS011;38747;53.140;6.498;2024-02-28T09:45:30;24.67;;;11.77;;
52878;SDS011;38747;53.140;6.498;2024-02-28T09:47:58;26.77;;;12.37;;
52878;SDS011;38747;53.140;6.498;2024-02-28T09:50:25;27.52;;;12.15;;
52878;SDS011;38747;53.140;6.498;2024-02-28T09:52:52;25.23;;;12.27;;
52878;SDS011;38747;53.140;6.498;2024-02-28T09:55:18;29.85;;;12.38;;
52878;SDS011;38747;53.140;6.498;2024-02-28T09:57:45;26.48;;;11.52;;
52878;SDS011;38747;53.140;6.498;2024-02-28T10:00:13;27.07;;;12.17;;
52878;SDS011;38747;53.140;6.498;2024-02-28T10:02:41;26.85;;;13.15;;
52878;SDS011;38747;53.140;6.498;2024-02-28T10:05:10;25.27;;;11.27;;
52878;SDS011;38747;53.140;6.498;2024-02-28T10:07:35;28.37;;;11.83;;
52878;SDS011;38747;53.140;6.498;2024-02-28T10:10:01;25.90;;;11.55;;
52878;SDS011;38747;53.140;6.498;2024-02-28T10:12:28;24.90;;;11.73;;
52878;SDS011;38747;53.140;6.498;2024-02-28T10:14:53;25.00;;;11.70;;
52878;SDS011;38747;53.140;6.498;2024-02-28T10:17:19;26.90;;;12.23;;
52878;SDS011;38747;53.140;6.498;2024-02-28T10:19:45;27.30;;;11.23;;
52878;SDS011;38747;53.140;6.498;2024-02-28T10:22:10;29.53;;;12.10;;
52878;SDS011;38747;53.140;6.498;2024-02-28T10:24:36;26.67;;;12.35;;
52878;SDS011;38747;53.140;6.498;2024-02-28T10:27:02;26.77;;;11.90;;
52878;SDS011;38747;53.140;6.498;2024-02-28T10:29:28;27.13;;;11.65;;
52878;SDS011;38747;53.140;6.498;2024-02-28T10:31:57;26.45;;;12.15;;
52878;SDS011;38747;53.140;6.498;2024-02-28T10:34:23;26.60;;;12.13;;
52878;SDS011;38747;53.140;6.498;2024-02-28T10:36:49;26.43;;;12.33;;
52878;SDS011;38747;53.140;6.498;2024-02-28T10:39:15;26.77;;;11.85;;
52878;SDS011;38747;53.140;6.498;2024-02-28T10:41:41;26.10;;;11.98;;
52878;SDS011;38747;53.140;6.498;2024-02-28T10:44:09;27.45;;;12.68;;
52878;SDS011;38747;53.140;6.498;2024-02-28T10:46:37;26.97;;;11.80;;
52878;SDS011;38747;53.140;6.498;2024-02-28T10:49:04;25.75;;;11.57;;
52878;SDS011;38747;53.140;6.498;2024-02-28T10:51:30;26.08;;;11.77;;
52878;SDS011;38747;53.140;6.498;2024-02-28T10:54:10;26.67;;;12.30;;
52878;SDS011;38747;53.140;6.498;2024-02-28T10:56:38;26.00;;;12.20;;
52878;SDS011;38747;53.140;6.498;2024-02-28T10:59:08;27.43;;;12.37;;
52878;SDS011;38747;53.140;6.498;2024-02-28T11:01:41;28.73;;;12.65;;
52878;SDS011;38747;53.140;6.498;2024-02-28T11:04:09;24.52;;;11.10;;
52878;SDS011;38747;53.140;6.498;2024-02-28T11:06:46;27.23;;;11.98;;
52878;SDS011;38747;53.140;6.498;2024-02-28T11:09:18;25.63;;;11.98;;
52878;SDS011;38747;53.140;6.498;2024-02-28T11:11:51;25.40;;;11.53;;
52878;SDS011;38747;53.140;6.498;2024-02-28T11:14:17;26.58;;;11.90;;
52878;SDS011;38747;53.140;6.498;2024-02-28T11:16:46;28.30;;;12.20;;
52878;SDS011;38747;53.140;6.498;2024-02-28T11:19:21;29.03;;;12.47;;
52878;SDS011;38747;53.140;6.498;2024-02-28T11:21:53;28.67;;;12.57;;
52878;SDS011;38747;53.140;6.498;2024-02-28T11:24:22;24.85;;;11.18;;
52878;SDS011;38747;53.140;6.498;2024-02-28T11:26:50;28.65;;;12.38;;
52878;SDS011;38747;53.140;6.498;2024-02-28T11:29:16;28.83;;;12.35;;
52878;SDS011;38747;53.140;6.498;2024-02-28T11:31:48;25.70;;;11.67;;
52878;SDS011;38747;53.140;6.498;2024-02-28T11:34:13;25.33;;;11.90;;
52878;SDS011;38747;53.140;6.498;2024-02-28T11:36:39;27.80;;;11.87;;
52878;SDS011;38747;53.140;6.498;2024-02-28T11:39:07;26.55;;;11.52;;
52878;SDS011;38747;53.140;6.498;2024-02-28T11:41:32;30.02;;;12.65;;
52878;SDS011;38747;53.140;6.498;2024-02-28T11:43:58;29.30;;;12.97;;
52878;SDS011;38747;53.140;6.498;2024-02-28T11:46:24;30.30;;;13.27;;
52878;SDS011;38747;53.140;6.498;2024-02-28T11:48:49;30.50;;;12.33;;
52878;SDS011;38747;53.140;6.498;2024-02-28T11:51:15;27.87;;;12.93;;
52878;SDS011;38747;53.140;6.498;2024-02-28T11:53:41;29.23;;;13.13;;
52878;SDS011;38747;53.140;6.498;2024-02-28T11:56:06;28.10;;;12.80;;
52878;SDS011;38747;53.140;6.498;2024-02-28T11:58:33;28.60;;;12.93;;
52878;SDS011;38747;53.140;6.498;2024-02-28T12:00:58;26.05;;;12.90;;
52878;SDS011;38747;53.140;6.498;2024-02-28T12:03:24;27.73;;;13.10;;
52878;SDS011;38747;53.140;6.498;2024-02-28T12:05:54;32.13;;;14.68;;
52878;SDS011;38747;53.140;6.498;2024-02-28T12:08:21;28.95;;;13.40;;
52878;SDS011;38747;53.140;6.498;2024-02-28T12:10:46;29.63;;;14.20;;
52878;SDS011;38747;53.140;6.498;2024-02-28T12:13:19;31.55;;;13.90;;
52878;SDS011;38747;53.140;6.498;2024-02-28T12:15:45;27.83;;;13.32;;
52878;SDS011;38747;53.140;6.498;2024-02-28T12:18:12;30.98;;;13.88;;
52878;SDS011;38747;53.140;6.498;2024-02-28T12:20:40;29.13;;;13.90;;
52878;SDS011;38747;53.140;6.498;2024-02-28T12:23:06;28.67;;;14.00;;
52878;SDS011;38747;53.140;6.498;2024-02-28T12:25:33;28.67;;;13.20;;
52878;SDS011;38747;53.140;6.498;2024-02-28T12:27:59;28.88;;;13.10;;
52878;SDS011;38747;53.140;6.498;2024-02-28T12:30:26;28.40;;;13.90;;
52878;SDS011;38747;53.140;6.498;2024-02-28T12:32:51;31.58;;;14.32;;
52878;SDS011;38747;53.140;6.498;2024-02-28T12:35:17;29.40;;;14.43;;
52878;SDS011;38747;53.140;6.498;2024-02-28T12:37:43;27.52;;;12.95;;
52878;SDS011;38747;53.140;6.498;2024-02-28T12:40:08;28.87;;;13.80;;
52878;SDS011;38747;53.140;6.498;2024-02-28T12:42:34;26.23;;;13.00;;
52878;SDS011;38747;53.140;6.498;2024-02-28T12:45:01;27.98;;;14.10;;
52878;SDS011;38747;53.140;6.498;2024-02-28T12:47:27;27.00;;;13.30;;
52878;SDS011;38747;53.140;6.498;2024-02-28T12:49:55;28.45;;;13.55;;
52878;SDS011;38747;53.140;6.498;2024-02-28T12:52:21;26.80;;;13.00;;
52878;SDS011;38747;53.140;6.498;2024-02-28T12:54:46;24.73;;;12.47;;
52878;SDS011;38747;53.140;6.498;2024-02-28T12:57:12;26.17;;;12.20;;
52878;SDS011;38747;53.140;6.498;2024-02-28T12:59:41;27.13;;;13.05;;
52878;SDS011;38747;53.140;6.498;2024-02-28T13:02:07;26.67;;;13.30;;
52878;SDS011;38747;53.140;6.498;2024-02-28T13:04:34;26.33;;;13.60;;
52878;SDS011;38747;53.140;6.498;2024-02-28T13:07:00;26.27;;;12.87;;
52878;SDS011;38747;53.140;6.498;2024-02-28T13:09:25;24.23;;;12.32;;
52878;SDS011;38747;53.140;6.498;2024-02-28T13:11:51;23.23;;;12.60;;
52878;SDS011;38747;53.140;6.498;2024-02-28T13:14:17;26.77;;;12.55;;
52878;SDS011;38747;53.140;6.498;2024-02-28T13:16:42;27.83;;;12.50;;
52878;SDS011;38747;53.140;6.498;2024-02-28T13:19:09;23.30;;;11.77;;
52878;SDS011;38747;53.140;6.498;2024-02-28T13:21:35;22.60;;;11.20;;
52878;SDS011;38747;53.140;6.498;2024-02-28T13:24:02;22.90;;;11.50;;
52878;SDS011;38747;53.140;6.498;2024-02-28T13:26:28;25.98;;;12.50;;
52878;SDS011;38747;53.140;6.498;2024-02-28T13:28:54;25.27;;;12.15;;
52878;SDS011;38747;53.140;6.498;2024-02-28T13:31:19;24.23;;;11.60;;
52878;SDS011;38747;53.140;6.498;2024-02-28T13:33:45;24.88;;;11.50;;
52878;SDS011;38747;53.140;6.498;2024-02-28T13:36:13;26.13;;;12.40;;
52878;SDS011;38747;53.140;6.498;2024-02-28T13:38:39;24.43;;;12.63;;
52878;SDS011;38747;53.140;6.498;2024-02-28T13:41:04;23.30;;;11.73;;
52878;SDS011;38747;53.140;6.498;2024-02-28T13:43:30;23.87;;;11.90;;
52878;SDS011;38747;53.140;6.498;2024-02-28T13:45:56;22.73;;;11.90;;
52878;SDS011;38747;53.140;6.498;2024-02-28T13:48:25;24.92;;;12.18;;
52878;SDS011;38747;53.140;6.498;2024-02-28T13:50:53;25.53;;;12.20;;
52878;SDS011;38747;53.140;6.498;2024-02-28T13:53:19;24.13;;;12.45;;
52878;SDS011;38747;53.140;6.498;2024-02-28T13:55:45;23.42;;;12.18;;
52878;SDS011;38747;53.140;6.498;2024-02-28T13:58:11;23.57;;;12.07;;
52878;SDS011;38747;53.140;6.498;2024-02-28T14:00:37;24.05;;;12.60;;
52878;SDS011;38747;53.140;6.498;2024-02-28T14:03:04;26.48;;;13.32;;
52878;SDS011;38747;53.140;6.498;2024-02-28T14:05:31;24.77;;;12.90;;
52878;SDS011;38747;53.140;6.498;2024-02-28T14:07:59;27.93;;;13.67;;
52878;SDS011;38747;53.140;6.498;2024-02-28T14:10:26;25.80;;;13.82;;
52878;SDS011;38747;53.140;6.498;2024-02-28T14:12:51;31.13;;;14.43;;
52878;SDS011;38747;53.140;6.498;2024-02-28T14:15:18;27.48;;;14.20;;
52878;SDS011;38747;53.140;6.498;2024-02-28T14:17:44;26.40;;;14.03;;
52878;SDS011;38747;53.140;6.498;2024-02-28T14:20:10;24.80;;;13.50;;
52878;SDS011;38747;53.140;6.498;2024-02-28T14:22:37;26.02;;;14.07;;
52878;SDS011;38747;53.140;6.498;2024-02-28T14:25:12;30.80;;;14.75;;
52878;SDS011;38747;53.140;6.498;2024-02-28T14:27:39;24.45;;;14.05;;
52878;SDS011;38747;53.140;6.498;2024-02-28T14:30:08;29.30;;;14.40;;
52878;SDS011;38747;53.140;6.498;2024-02-28T14:32:37;27.17;;;14.57;;
52878;SDS011;38747;53.140;6.498;2024-02-28T14:35:05;27.10;;;14.50;;
52878;SDS011;38747;53.140;6.498;2024-02-28T14:37:32;26.35;;;14.10;;
52878;SDS011;38747;53.140;6.498;2024-02-28T14:39:58;26.00;;;14.68;;
52878;SDS011;38747;53.140;6.498;2024-02-28T14:42:26;29.67;;;14.53;;
52878;SDS011;38747;53.140;6.498;2024-02-28T14:44:51;24.38;;;14.27;;
52878;SDS011;38747;53.140;6.498;2024-02-28T14:47:18;31.80;;;14.50;;
52878;SDS011;38747;53.140;6.498;2024-02-28T14:49:45;25.47;;;14.47;;
52878;SDS011;38747;53.140;6.498;2024-02-28T14:52:10;27.83;;;15.57;;